createdAt,value
2022-08-23T00:00:13.460Z,85.08
2022-08-23T00:03:10.749Z,86.13
2022-08-23T00:06:07.755Z,85.61
2022-08-23T00:09:05.285Z,85.13
2022-08-23T00:12:02.725Z,85.17
2022-08-23T00:14:59.945Z,85.20
2022-08-23T00:17:56.888Z,86.28
2022-08-23T00:20:53.814Z,85.72
2022-08-23T00:23:51.171Z,87.24
2022-08-23T00:27:12.701Z,86.92
2022-08-23T00:30:10.784Z,87.36
2022-08-23T00:33:08.068Z,87.03
2022-08-23T00:36:05.621Z,87.18
2022-08-23T00:39:02.796Z,85.58
2022-08-23T00:42:27.953Z,85.56
2022-08-23T00:45:49.149Z,86.01
2022-08-23T00:48:47.105Z,85.36
2022-08-23T00:51:53.637Z,85.63
2022-08-23T00:54:52.973Z,85.54
2022-08-23T00:57:49.850Z,85.94
2022-08-23T01:00:50.260Z,86.32
2022-08-23T01:04:03.983Z,86.04
2022-08-23T01:07:19.525Z,87.01
2022-08-23T01:10:32.029Z,87.72
2022-08-23T01:13:39.436Z,87.26
2022-08-23T01:17:17.686Z,86.46
2022-08-23T01:20:19.483Z,85.30
2022-08-23T01:23:45.648Z,84.24
2022-08-23T01:26:42.723Z,84.33
2022-08-23T01:29:40.710Z,85.73
2022-08-23T01:35:38.231Z,85.22
2022-08-23T01:38:36.217Z,85.02
2022-08-23T01:41:34.209Z,86.12
2022-08-23T01:44:31.747Z,86.63
2022-08-23T01:47:30.012Z,86.66
2022-08-23T01:50:28.317Z,86.90
2022-08-23T01:53:25.624Z,86.23
2022-08-23T01:56:38.185Z,85.83
2022-08-23T01:59:37.533Z,85.63
2022-08-23T02:02:35.251Z,86.73
2022-08-23T02:05:33.168Z,86.85
2022-08-23T02:08:49.819Z,86.65
2022-08-23T02:11:51.972Z,87.22
2022-08-23T02:14:49.110Z,86.26
2022-08-23T02:17:54.986Z,85.51
2022-08-23T02:20:52.462Z,85.24
2022-08-23T02:23:51.664Z,84.85
2022-08-23T02:26:50.476Z,84.70
2022-08-23T02:29:53.962Z,84.31
2022-08-23T02:32:52.022Z,84.55
2022-08-23T02:35:50.084Z,84.56
2022-08-23T02:38:48.084Z,84.58
2022-08-23T02:41:44.699Z,85.53
2022-08-23T02:44:41.877Z,85.32
2022-08-23T02:47:40.020Z,85.33
2022-08-23T02:50:50.788Z,85.54
2022-08-23T02:53:49.112Z,85.29
2022-08-23T02:56:47.589Z,83.92
2022-08-23T02:59:44.989Z,84.67
2022-08-23T03:02:42.863Z,84.74
2022-08-23T03:05:40.861Z,85.27
2022-08-23T03:08:38.010Z,85.50
2022-08-23T03:11:36.356Z,84.73
2022-08-23T03:14:35.175Z,85.02
2022-08-23T03:17:35.109Z,85.36
2022-08-23T03:20:34.545Z,85.14
2022-08-23T03:23:33.274Z,84.88
2022-08-23T03:26:30.809Z,84.49
2022-08-23T03:29:28.761Z,85.46
2022-08-23T03:32:30.085Z,85.62
2022-08-23T03:35:28.158Z,84.86
2022-08-23T03:38:26.058Z,85.18
2022-08-23T03:41:23.180Z,85.02
2022-08-23T03:44:20.917Z,85.35
2022-08-23T03:47:18.931Z,84.70
2022-08-23T03:50:20.881Z,84.24
2022-08-23T03:53:17.959Z,84.77
2022-08-23T03:56:27.360Z,84.65
2022-08-23T03:59:24.821Z,85.13
2022-08-23T04:02:22.129Z,84.73
2022-08-23T04:05:19.966Z,84.77
2022-08-23T04:08:27.078Z,84.26
2022-08-23T04:11:31.597Z,84.98
2022-08-23T04:14:35.534Z,85.14
2022-08-23T04:17:33.717Z,85.31
2022-08-23T04:20:31.062Z,84.51
2022-08-23T04:23:31.538Z,84.69
2022-08-23T04:26:30.346Z,84.97
2022-08-23T04:29:34.396Z,85.26
2022-08-23T04:32:33.206Z,85.57
2022-08-23T04:35:32.486Z,85.28
2022-08-23T04:38:29.831Z,85.38
2022-08-23T04:41:50.440Z,87.18
2022-08-23T04:44:48.050Z,87.13
2022-08-23T04:47:45.240Z,87.06
2022-08-23T04:50:43.062Z,86.56
2022-08-23T04:53:50.994Z,86.28
2022-08-23T04:57:16.889Z,86.02
2022-08-23T05:00:16.909Z,86.11
2022-08-23T05:03:21.232Z,86.08
2022-08-23T05:06:18.686Z,86.60
2022-08-23T05:09:20.446Z,85.64
2022-08-23T05:12:18.114Z,86.03
2022-08-23T05:15:21.017Z,86.47
2022-08-23T05:18:25.002Z,86.17
2022-08-23T05:21:23.705Z,86.06
2022-08-23T05:24:21.309Z,85.63
2022-08-23T05:27:19.167Z,85.25
2022-08-23T05:30:16.271Z,83.96
2022-08-23T05:33:13.760Z,83.27
2022-08-23T05:36:12.109Z,82.92
2022-08-23T05:39:08.977Z,82.25
2022-08-23T05:42:10.836Z,82.18
2022-08-23T05:45:09.646Z,81.79
2022-08-23T05:48:06.753Z,81.35
2022-08-23T05:51:18.074Z,81.27
2022-08-23T05:54:15.131Z,81.53
2022-08-23T05:57:12.246Z,81.02
2022-08-23T06:00:13.372Z,80.55
2022-08-23T06:03:15.921Z,80.23
2022-08-23T06:06:13.467Z,80.47
2022-08-23T06:09:15.117Z,79.96
2022-08-23T06:12:13.114Z,79.92
2022-08-23T06:15:10.899Z,78.33
2022-08-23T06:18:07.945Z,77.39
2022-08-23T06:21:08.044Z,79.02
2022-08-23T06:24:15.930Z,77.63
2022-08-23T06:27:24.066Z,78.03
2022-08-23T06:30:20.870Z,78.48
2022-08-23T06:33:27.455Z,77.62
2022-08-23T06:36:33.359Z,76.56
2022-08-23T06:39:46.120Z,75.75
2022-08-23T06:43:07.139Z,76.78
2022-08-23T06:46:24.245Z,76.73
2022-08-23T06:49:22.284Z,75.83
2022-08-23T06:52:19.570Z,74.89
2022-08-23T06:55:26.878Z,74.58
2022-08-23T06:58:33.968Z,74.52
2022-08-23T07:02:08.003Z,74.13
2022-08-23T07:05:24.143Z,73.39
2022-08-23T07:08:42.853Z,73.82
2022-08-23T07:11:39.887Z,72.80
2022-08-23T07:14:37.178Z,71.80
2022-08-23T07:17:35.498Z,72.25
2022-08-23T07:20:32.948Z,70.61
2022-08-23T07:23:33.553Z,70.51
2022-08-23T07:26:33.478Z,71.11
2022-08-23T07:29:31.517Z,70.66
2022-08-23T07:32:29.159Z,71.38
2022-08-23T07:35:28.492Z,69.79
2022-08-23T07:38:30.628Z,68.98
2022-08-23T07:41:30.999Z,69.26
2022-08-23T07:44:30.162Z,66.60
2022-08-23T07:47:29.687Z,65.99
2022-08-23T07:50:30.508Z,64.96
2022-08-23T07:53:37.699Z,64.09
2022-08-23T07:56:37.376Z,62.68
2022-08-23T07:59:46.050Z,61.11
2022-08-23T08:03:11.583Z,61.73
2022-08-23T08:06:28.073Z,61.02
2022-08-23T08:09:25.215Z,61.51
2022-08-23T08:12:23.493Z,60.08
2022-08-23T08:15:24.079Z,58.72
2022-08-23T08:18:28.424Z,58.34
2022-08-23T08:21:48.604Z,58.45
2022-08-23T08:24:55.041Z,56.79
2022-08-23T08:27:52.499Z,57.98
2022-08-23T08:30:50.162Z,55.86
2022-08-23T08:33:47.077Z,56.19
2022-08-23T08:36:47.386Z,56.50
2022-08-23T08:39:47.415Z,55.66
2022-08-23T08:42:48.982Z,56.76
2022-08-23T08:46:04.303Z,54.76
2022-08-23T08:49:04.798Z,55.13
2022-08-23T08:52:11.194Z,54.96
2022-08-23T08:55:12.065Z,55.44
2022-08-23T08:58:14.842Z,54.37
2022-08-23T09:01:12.439Z,54.52
2022-08-23T09:04:10.065Z,54.86
2022-08-23T09:07:15.745Z,54.85
2022-08-23T09:10:42.769Z,54.10
2022-08-23T09:13:55.381Z,55.36
2022-08-23T09:16:53.951Z,53.51
2022-08-23T09:19:51.641Z,52.34
2022-08-23T09:22:52.470Z,53.96
2022-08-23T09:26:03.516Z,53.39
2022-08-23T09:29:26.626Z,52.06
2022-08-23T09:32:26.926Z,51.78
2022-08-23T09:35:25.650Z,52.39
2022-08-23T09:38:33.963Z,51.31
2022-08-23T09:41:43.194Z,51.01
2022-08-23T09:44:42.307Z,51.87
2022-08-23T09:47:44.392Z,50.73
2022-08-23T09:50:50.246Z,50.89
2022-08-23T09:54:19.734Z,50.19
2022-08-23T09:57:18.083Z,51.22
2022-08-23T10:00:27.885Z,49.99
2022-08-23T10:03:28.956Z,48.54
2022-08-23T10:06:34.195Z,48.63
2022-08-23T10:09:34.520Z,48.82
2022-08-23T10:12:35.581Z,48.42
2022-08-23T10:15:40.584Z,49.23
2022-08-23T10:19:02.861Z,51.13
2022-08-23T10:22:22.094Z,53.34
2022-08-23T10:25:44.999Z,49.63
2022-08-23T10:29:14.959Z,49.71
2022-08-23T10:32:19.073Z,50.29
2022-08-23T10:35:23.884Z,49.25
2022-08-23T10:38:33.205Z,48.59
2022-08-23T10:41:57.054Z,48.38
2022-08-23T10:45:22.613Z,47.21
2022-08-23T10:48:28.889Z,48.72
2022-08-23T10:51:31.695Z,49.12
2022-08-23T10:54:35.872Z,47.42
2022-08-23T10:57:40.327Z,47.15
2022-08-23T11:00:38.317Z,49.89
2022-08-23T11:03:50.406Z,46.86
2022-08-23T11:06:51.122Z,47.59
2022-08-23T11:10:09.904Z,47.82
2022-08-23T11:13:14.115Z,47.14
2022-08-23T11:16:15.898Z,47.29
2022-08-23T11:19:15.649Z,48.14
2022-08-23T11:22:23.227Z,45.92
2022-08-23T11:25:22.104Z,47.13
2022-08-23T11:28:25.912Z,44.77
2022-08-23T11:31:53.422Z,45.76
2022-08-23T11:34:55.264Z,45.85
2022-08-23T11:37:59.882Z,44.96
2022-08-23T11:41:34.140Z,44.46
2022-08-23T11:44:42.565Z,45.55
2022-08-23T11:47:42.661Z,44.59
2022-08-23T11:50:45.837Z,46.09
2022-08-23T11:53:49.502Z,46.07
2022-08-23T11:56:58.081Z,44.60
2022-08-23T12:00:29.045Z,44.31
2022-08-23T12:03:35.520Z,44.01
2022-08-23T12:06:50.593Z,44.04
2022-08-23T12:09:50.253Z,43.38
2022-08-23T12:12:47.511Z,44.49
2022-08-23T12:16:19.406Z,43.86
2022-08-23T12:19:32.323Z,44.66
2022-08-23T12:22:53.648Z,43.51
2022-08-23T12:26:09.470Z,43.89
2022-08-23T12:29:27.929Z,45.71
2022-08-23T12:32:52.711Z,43.74
2022-08-23T12:35:50.389Z,43.42
2022-08-23T12:39:09.958Z,43.71
2022-08-23T12:42:13.808Z,43.53
2022-08-23T12:45:41.467Z,42.66
2022-08-23T12:48:46.859Z,42.38
2022-08-23T12:51:52.354Z,43.59
2022-08-23T12:54:50.669Z,42.55
2022-08-23T12:57:54.690Z,43.08
2022-08-23T13:00:54.586Z,43.21
2022-08-23T13:04:19.686Z,43.37
2022-08-23T13:07:19.747Z,42.17
2022-08-23T13:10:17.332Z,43.26
2022-08-23T13:13:16.757Z,42.49
2022-08-23T13:16:26.802Z,42.85
2022-08-23T13:19:29.273Z,43.33
2022-08-23T13:22:26.772Z,42.10
2022-08-23T13:25:31.153Z,42.44
2022-08-23T13:28:31.096Z,42.83
2022-08-23T13:32:02.526Z,41.60
2022-08-23T13:35:23.231Z,41.54
2022-08-23T13:38:25.484Z,42.00
2022-08-23T13:41:39.172Z,40.70
2022-08-23T13:44:36.753Z,40.49
2022-08-23T13:47:35.836Z,40.19
2022-08-23T13:50:36.090Z,40.20
2022-08-23T13:53:33.429Z,41.81
2022-08-23T13:56:36.887Z,40.47
2022-08-23T13:59:40.324Z,40.67
2022-08-23T14:02:37.975Z,38.92
2022-08-23T14:05:35.596Z,40.75
2022-08-23T14:08:32.310Z,39.52
2022-08-23T14:11:29.295Z,39.14
2022-08-23T14:14:26.597Z,39.04
2022-08-23T14:17:23.387Z,39.56
2022-08-23T14:23:38.498Z,40.24
2022-08-23T14:26:35.422Z,39.56
2022-08-23T14:29:32.485Z,38.48
2022-08-23T14:32:29.569Z,39.32
2022-08-23T14:35:26.727Z,40.42
2022-08-23T14:38:23.743Z,40.01
2022-08-23T14:41:22.761Z,39.59
2022-08-23T14:44:19.282Z,38.63
2022-08-23T14:47:16.881Z,39.00
2022-08-23T14:50:14.576Z,38.38
2022-08-23T14:53:12.589Z,39.00
2022-08-23T14:56:20.991Z,39.80
2022-08-23T14:59:18.758Z,37.96
2022-08-23T15:02:17.592Z,39.31
2022-08-23T15:05:15.124Z,39.62
2022-08-23T15:08:12.818Z,39.71
2022-08-23T15:14:27.485Z,41.66
2022-08-23T15:17:30.322Z,40.86
2022-08-23T15:20:31.100Z,39.78
2022-08-23T15:23:28.629Z,39.85
2022-08-23T15:26:27.237Z,40.04
2022-08-23T15:29:24.768Z,39.74
2022-08-23T15:32:22.499Z,39.14
2022-08-23T15:35:21.036Z,39.01
2022-08-23T15:38:18.664Z,38.38
2022-08-23T15:41:17.845Z,38.88
2022-08-23T15:44:15.696Z,38.82
2022-08-23T15:47:25.470Z,38.67
2022-08-23T15:50:24.272Z,38.96
2022-08-23T15:53:22.131Z,38.60
2022-08-23T15:56:22.520Z,38.26
2022-08-23T15:59:19.637Z,38.34
2022-08-23T16:02:16.608Z,37.46
2022-08-23T16:05:13.530Z,38.72
2022-08-23T16:08:14.939Z,38.60
2022-08-23T16:11:13.028Z,38.09
2022-08-23T16:14:10.871Z,38.26
2022-08-23T16:17:07.758Z,37.68
2022-08-23T16:20:05.459Z,37.46
2022-08-23T16:23:02.493Z,37.85
2022-08-23T16:26:01.305Z,38.50
2022-08-23T16:28:58.748Z,37.77
2022-08-23T16:31:57.633Z,37.63
2022-08-23T16:34:54.796Z,38.41
2022-08-23T16:37:54.537Z,40.28
2022-08-23T16:40:51.558Z,39.15
2022-08-23T16:43:49.256Z,38.57
2022-08-23T16:46:47.130Z,38.32
2022-08-23T16:49:44.914Z,38.58
2022-08-23T16:52:41.515Z,39.50
2022-08-23T16:55:38.704Z,40.86
2022-08-23T16:58:36.698Z,39.32
2022-08-23T17:01:50.282Z,38.29
2022-08-23T17:04:52.173Z,39.38
2022-08-23T17:07:50.625Z,38.28
2022-08-23T17:10:48.808Z,37.95
2022-08-23T17:13:45.929Z,42.05
2022-08-23T17:16:44.084Z,41.08
2022-08-23T17:19:41.783Z,39.72
2022-08-23T17:22:38.392Z,40.87
2022-08-23T17:25:36.296Z,40.32
2022-08-23T17:28:33.822Z,47.58
2022-08-23T17:31:30.560Z,42.59
2022-08-23T17:34:27.680Z,47.58
2022-08-23T17:37:24.624Z,49.87
2022-08-23T17:40:24.948Z,51.99
2022-08-23T17:43:21.794Z,53.75
2022-08-23T17:46:18.686Z,54.75
2022-08-23T17:49:16.454Z,54.57
2022-08-23T17:52:13.607Z,54.38
2022-08-23T17:55:10.799Z,56.55
2022-08-23T17:58:08.163Z,51.42
2022-08-23T18:01:07.598Z,50.35
2022-08-23T18:04:05.973Z,54.34
2022-08-23T18:07:02.772Z,56.23
2022-08-23T18:09:59.737Z,56.89
2022-08-23T18:12:57.621Z,57.44
2022-08-23T18:15:54.671Z,58.34
2022-08-23T18:18:51.596Z,58.05
2022-08-23T18:21:49.570Z,58.92
2022-08-23T18:24:46.838Z,59.16
2022-08-23T18:28:02.884Z,59.00
2022-08-23T18:31:03.488Z,59.67
2022-08-23T18:34:00.946Z,59.40
2022-08-23T18:36:59.335Z,59.44
2022-08-23T18:39:57.677Z,60.72
2022-08-23T18:42:55.116Z,60.09
2022-08-23T18:45:53.782Z,60.63
2022-08-23T18:48:53.591Z,58.73
2022-08-23T18:51:50.986Z,58.77
2022-08-23T18:54:48.025Z,59.25
2022-08-23T18:57:46.077Z,60.48
2022-08-23T19:00:43.718Z,61.24
2022-08-23T19:03:40.689Z,58.86
2022-08-23T19:06:37.835Z,59.62
2022-08-23T19:09:34.934Z,58.95
2022-08-23T19:12:31.455Z,59.78
2022-08-23T19:15:33.998Z,56.03
2022-08-23T19:18:30.635Z,56.48
2022-08-23T19:21:27.840Z,56.08
2022-08-23T19:24:25.052Z,56.24
2022-08-23T19:27:21.664Z,56.83
2022-08-23T19:30:19.114Z,56.59
2022-08-23T19:33:17.914Z,55.32
2022-08-23T19:36:35.718Z,54.02
2022-08-23T19:39:31.839Z,52.48
2022-08-23T19:42:28.889Z,53.27
2022-08-23T19:45:26.061Z,50.96
2022-08-23T19:48:28.654Z,50.74
2022-08-23T19:51:26.490Z,49.24
2022-08-23T19:54:23.624Z,50.56
2022-08-23T19:57:23.088Z,52.56
2022-08-23T20:00:20.767Z,53.23
2022-08-23T20:03:17.918Z,54.18
2022-08-23T20:06:18.925Z,53.87
2022-08-23T20:09:17.334Z,52.18
2022-08-23T20:12:16.931Z,52.27
2022-08-23T20:15:13.867Z,50.09
2022-08-23T20:18:10.999Z,49.89
2022-08-23T20:21:08.265Z,50.94
2022-08-23T20:24:07.402Z,50.93
2022-08-23T20:27:06.219Z,51.85
2022-08-23T20:30:08.314Z,50.47
2022-08-23T20:33:05.754Z,50.78
2022-08-23T20:36:03.446Z,49.89
2022-08-23T20:39:01.044Z,49.10
2022-08-23T20:41:58.234Z,49.17
2022-08-23T20:44:55.989Z,48.79
2022-08-23T20:47:52.603Z,48.32
2022-08-23T20:50:49.901Z,49.77
2022-08-23T20:53:47.336Z,48.86
2022-08-23T20:56:45.104Z,48.92
2022-08-23T20:59:44.682Z,48.72
2022-08-23T21:02:41.565Z,48.68
2022-08-23T21:05:39.137Z,49.34
2022-08-23T21:08:35.548Z,48.54
2022-08-23T21:11:39.950Z,48.71
2022-08-23T21:14:36.972Z,48.38
2022-08-23T21:17:33.933Z,48.96
2022-08-23T21:20:30.953Z,49.29
2022-08-23T21:23:27.856Z,49.21
2022-08-23T21:26:24.983Z,48.88
2022-08-23T21:29:21.952Z,52.07
2022-08-23T21:32:18.754Z,49.39
2022-08-23T21:35:15.719Z,52.34
2022-08-23T21:38:12.744Z,52.80
2022-08-23T21:41:12.086Z,51.82
2022-08-23T21:44:11.299Z,51.50
2022-08-23T21:47:09.015Z,52.10
2022-08-23T21:50:06.062Z,52.16
2022-08-23T21:53:04.245Z,50.40
2022-08-23T21:56:02.094Z,50.24
2022-08-23T21:58:59.635Z,50.98
2022-08-23T22:01:57.384Z,51.37
2022-08-23T22:04:54.829Z,54.56
2022-08-23T22:07:52.099Z,52.67
2022-08-23T22:10:57.833Z,53.70
2022-08-23T22:13:56.270Z,54.17
2022-08-23T22:16:55.317Z,53.46
2022-08-23T22:19:52.939Z,52.44
2022-08-23T22:22:50.744Z,55.33
2022-08-23T22:25:48.016Z,55.59
2022-08-23T22:28:45.983Z,53.67
2022-08-23T22:31:43.334Z,52.42
2022-08-23T22:34:41.174Z,53.47
2022-08-23T22:37:45.930Z,53.60
2022-08-23T22:40:51.865Z,55.05
2022-08-23T22:43:49.051Z,53.96
2022-08-23T22:46:46.130Z,56.52
2022-08-23T22:49:43.036Z,53.26
2022-08-23T22:52:40.499Z,53.62
2022-08-23T22:55:37.837Z,53.72
2022-08-23T22:58:35.053Z,54.55
2022-08-23T23:01:34.468Z,54.29
2022-08-23T23:04:33.728Z,54.85
2022-08-23T23:07:49.587Z,55.20
2022-08-23T23:10:46.657Z,57.88
2022-08-23T23:13:44.580Z,60.43
2022-08-23T23:16:42.243Z,67.24
2022-08-23T23:19:58.439Z,67.37
2022-08-23T23:22:55.863Z,67.84
2022-08-23T23:25:52.904Z,67.00
2022-08-23T23:28:50.216Z,65.51
2022-08-23T23:31:46.931Z,65.43
2022-08-23T23:34:43.821Z,65.19
2022-08-23T23:37:40.907Z,68.20
2022-08-23T23:40:38.512Z,67.93
2022-08-23T23:43:35.883Z,68.14
2022-08-23T23:46:32.986Z,67.02
2022-08-23T23:49:32.122Z,67.32
2022-08-23T23:52:29.808Z,67.22
2022-08-23T23:55:27.336Z,66.88
2022-08-23T23:58:24.675Z,68.68
